sensor_id;sensor_type;location;lat;lon;timestamp;temperature;humidity
26479;DHT22;14163;-26.142;27.992;2022-08-07T00:01:14;19.20;58.60
26479;DHT22;14163;-26.142;27.992;2022-08-07T00:03:44;19.20;59.30
26479;DHT22;14163;-26.142;27.992;2022-08-07T00:06:14;19.20;59.70
26479;DHT22;14163;-26.142;27.992;2022-08-07T00:08:43;19.20;59.80
26479;DHT22;14163;-26.142;27.992;2022-08-07T00:11:12;19.10;59.20
26479;DHT22;14163;-26.142;27.992;2022-08-07T00:13:43;19.20;59.00
26479;DHT22;14163;-26.142;27.992;2022-08-07T00:16:14;19.10;58.90
26479;DHT22;14163;-26.142;27.992;2022-08-07T00:18:43;19.00;58.60
26479;DHT22;14163;-26.142;27.992;2022-08-07T00:21:12;19.10;59.00
26479;DHT22;14163;-26.142;27.992;2022-08-07T00:23:41;19.00;58.80
26479;DHT22;14163;-26.142;27.992;2022-08-07T00:26:11;19.00;58.70
26479;DHT22;14163;-26.142;27.992;2022-08-07T00:28:40;18.90;58.00
26479;DHT22;14163;-26.142;27.992;2022-08-07T00:31:12;18.80;56.20
26479;DHT22;14163;-26.142;27.992;2022-08-07T00:33:41;18.90;58.90
26479;DHT22;14163;-26.142;27.992;2022-08-07T00:36:11;19.00;58.50
26479;DHT22;14163;-26.142;27.992;2022-08-07T00:38:40;19.00;58.70
26479;DHT22;14163;-26.142;27.992;2022-08-07T00:41:09;19.00;58.80
26479;DHT22;14163;-26.142;27.992;2022-08-07T00:43:39;18.90;58.90
26479;DHT22;14163;-26.142;27.992;2022-08-07T00:46:08;18.90;58.80
26479;DHT22;14163;-26.142;27.992;2022-08-07T00:48:39;18.80;57.10
26479;DHT22;14163;-26.142;27.992;2022-08-07T00:51:09;18.80;57.50
26479;DHT22;14163;-26.142;27.992;2022-08-07T00:53:38;18.90;58.80
26479;DHT22;14163;-26.142;27.992;2022-08-07T00:56:08;18.90;59.10
26479;DHT22;14163;-26.142;27.992;2022-08-07T00:58:41;18.90;59.20
26479;DHT22;14163;-26.142;27.992;2022-08-07T01:01:15;18.80;59.50
26479;DHT22;14163;-26.142;27.992;2022-08-07T01:03:46;18.80;59.50
26479;DHT22;14163;-26.142;27.992;2022-08-07T01:06:15;18.70;59.60
26479;DHT22;14163;-26.142;27.992;2022-08-07T01:08:45;18.70;59.70
26479;DHT22;14163;-26.142;27.992;2022-08-07T01:11:16;18.70;59.80
26479;DHT22;14163;-26.142;27.992;2022-08-07T01:13:46;18.70;59.60
26479;DHT22;14163;-26.142;27.992;2022-08-07T01:16:15;18.70;59.70
26479;DHT22;14163;-26.142;27.992;2022-08-07T01:18:47;18.60;59.70
26479;DHT22;14163;-26.142;27.992;2022-08-07T01:21:18;18.70;59.50
26479;DHT22;14163;-26.142;27.992;2022-08-07T01:23:51;18.70;59.40
26479;DHT22;14163;-26.142;27.992;2022-08-07T01:26:22;18.70;59.10
26479;DHT22;14163;-26.142;27.992;2022-08-07T01:28:53;18.60;59.20
26479;DHT22;14163;-26.142;27.992;2022-08-07T01:31:23;18.60;59.00
26479;DHT22;14163;-26.142;27.992;2022-08-07T01:33:55;18.60;58.40
26479;DHT22;14163;-26.142;27.992;2022-08-07T01:36:27;18.60;58.70
26479;DHT22;14163;-26.142;27.992;2022-08-07T01:38:57;18.60;58.60
26479;DHT22;14163;-26.142;27.992;2022-08-07T01:41:27;18.60;58.90
26479;DHT22;14163;-26.142;27.992;2022-08-07T01:43:56;18.60;59.30
26479;DHT22;14163;-26.142;27.992;2022-08-07T01:46:26;18.50;59.50
26479;DHT22;14163;-26.142;27.992;2022-08-07T01:48:55;18.50;59.70
26479;DHT22;14163;-26.142;27.992;2022-08-07T01:51:26;18.50;59.60
26479;DHT22;14163;-26.142;27.992;2022-08-07T01:53:59;18.50;59.70
26479;DHT22;14163;-26.142;27.992;2022-08-07T01:56:33;18.40;59.90
26479;DHT22;14163;-26.142;27.992;2022-08-07T01:59:07;18.40;59.70
26479;DHT22;14163;-26.142;27.992;2022-08-07T02:01:41;18.50;59.80
26479;DHT22;14163;-26.142;27.992;2022-08-07T02:04:14;18.50;60.00
26479;DHT22;14163;-26.142;27.992;2022-08-07T02:06:54;18.50;60.10
26479;DHT22;14163;-26.142;27.992;2022-08-07T02:09:26;18.50;60.20
26479;DHT22;14163;-26.142;27.992;2022-08-07T02:11:57;18.50;59.70
26479;DHT22;14163;-26.142;27.992;2022-08-07T02:14:44;18.50;60.00
26479;DHT22;14163;-26.142;27.992;2022-08-07T02:17:15;18.50;60.50
26479;DHT22;14163;-26.142;27.992;2022-08-07T02:19:47;18.50;60.40
26479;DHT22;14163;-26.142;27.992;2022-08-07T02:22:19;18.40;60.20
26479;DHT22;14163;-26.142;27.992;2022-08-07T02:24:52;18.40;59.90
26479;DHT22;14163;-26.142;27.992;2022-08-07T02:27:24;18.30;60.40
26479;DHT22;14163;-26.142;27.992;2022-08-07T02:29:55;18.30;59.80
26479;DHT22;14163;-26.142;27.992;2022-08-07T02:32:26;18.30;60.10
26479;DHT22;14163;-26.142;27.992;2022-08-07T02:34:57;18.30;60.30
26479;DHT22;14163;-26.142;27.992;2022-08-07T02:37:28;18.30;60.50
26479;DHT22;14163;-26.142;27.992;2022-08-07T02:39:59;18.20;59.20
26479;DHT22;14163;-26.142;27.992;2022-08-07T02:42:30;18.30;58.60
26479;DHT22;14163;-26.142;27.992;2022-08-07T02:45:02;18.40;58.00
26479;DHT22;14163;-26.142;27.992;2022-08-07T02:47:32;18.40;58.50
26479;DHT22;14163;-26.142;27.992;2022-08-07T02:50:02;18.50;57.90
26479;DHT22;14163;-26.142;27.992;2022-08-07T02:52:36;18.60;58.00
26479;DHT22;14163;-26.142;27.992;2022-08-07T02:55:11;18.60;57.30
26479;DHT22;14163;-26.142;27.992;2022-08-07T02:57:43;18.70;56.80
26479;DHT22;14163;-26.142;27.992;2022-08-07T03:00:13;18.80;57.50
26479;DHT22;14163;-26.142;27.992;2022-08-07T03:02:46;18.90;57.50
26479;DHT22;14163;-26.142;27.992;2022-08-07T03:05:16;18.90;59.10
26479;DHT22;14163;-26.142;27.992;2022-08-07T03:07:47;18.80;59.50
26479;DHT22;14163;-26.142;27.992;2022-08-07T03:10:17;18.70;59.60
26479;DHT22;14163;-26.142;27.992;2022-08-07T03:12:47;18.50;56.60
26479;DHT22;14163;-26.142;27.992;2022-08-07T03:15:17;18.40;56.00
26479;DHT22;14163;-26.142;27.992;2022-08-07T03:17:47;18.50;55.80
26479;DHT22;14163;-26.142;27.992;2022-08-07T03:20:17;18.60;55.70
26479;DHT22;14163;-26.142;27.992;2022-08-07T03:22:50;18.60;55.80
26479;DHT22;14163;-26.142;27.992;2022-08-07T03:25:21;18.50;56.10
26479;DHT22;14163;-26.142;27.992;2022-08-07T03:27:50;18.40;56.20
26479;DHT22;14163;-26.142;27.992;2022-08-07T03:30:21;18.30;56.20
26479;DHT22;14163;-26.142;27.992;2022-08-07T03:32:52;18.30;56.10
26479;DHT22;14163;-26.142;27.992;2022-08-07T03:35:25;18.30;56.00
26479;DHT22;14163;-26.142;27.992;2022-08-07T03:38:00;18.40;55.60
26479;DHT22;14163;-26.142;27.992;2022-08-07T03:40:31;18.40;55.80
26479;DHT22;14163;-26.142;27.992;2022-08-07T03:43:00;18.60;55.60
26479;DHT22;14163;-26.142;27.992;2022-08-07T03:45:31;18.60;55.50
26479;DHT22;14163;-26.142;27.992;2022-08-07T03:48:00;18.60;56.00
26479;DHT22;14163;-26.142;27.992;2022-08-07T03:50:30;18.60;56.40
26479;DHT22;14163;-26.142;27.992;2022-08-07T03:53:05;18.60;58.30
26479;DHT22;14163;-26.142;27.992;2022-08-07T03:55:34;18.50;59.10
26479;DHT22;14163;-26.142;27.992;2022-08-07T03:58:05;18.40;60.10
26479;DHT22;14163;-26.142;27.992;2022-08-07T04:00:35;18.30;60.00
26479;DHT22;14163;-26.142;27.992;2022-08-07T04:03:05;18.20;59.90
26479;DHT22;14163;-26.142;27.992;2022-08-07T04:05:35;18.10;60.60
26479;DHT22;14163;-26.142;27.992;2022-08-07T04:08:08;18.00;61.30
26479;DHT22;14163;-26.142;27.992;2022-08-07T04:10:38;17.80;61.00
26479;DHT22;14163;-26.142;27.992;2022-08-07T04:13:09;17.70;61.70
26479;DHT22;14163;-26.142;27.992;2022-08-07T04:15:39;17.60;62.10
26479;DHT22;14163;-26.142;27.992;2022-08-07T04:18:11;17.50;62.40
26479;DHT22;14163;-26.142;27.992;2022-08-07T04:20:41;17.50;62.80
26479;DHT22;14163;-26.142;27.992;2022-08-07T04:23:13;17.50;63.80
26479;DHT22;14163;-26.142;27.992;2022-08-07T04:25:43;17.40;62.70
26479;DHT22;14163;-26.142;27.992;2022-08-07T04:28:13;17.40;62.80
26479;DHT22;14163;-26.142;27.992;2022-08-07T04:30:45;17.40;63.10
26479;DHT22;14163;-26.142;27.992;2022-08-07T04:33:15;17.40;63.40
26479;DHT22;14163;-26.142;27.992;2022-08-07T04:35:45;17.30;63.20
26479;DHT22;14163;-26.142;27.992;2022-08-07T04:38:16;17.30;63.50
26479;DHT22;14163;-26.142;27.992;2022-08-07T04:40:46;17.40;64.00
26479;DHT22;14163;-26.142;27.992;2022-08-07T04:43:17;17.30;64.00
26479;DHT22;14163;-26.142;27.992;2022-08-07T04:45:52;17.20;64.00
26479;DHT22;14163;-26.142;27.992;2022-08-07T04:48:29;17.20;64.50
26479;DHT22;14163;-26.142;27.992;2022-08-07T04:51:04;17.20;64.60
26479;DHT22;14163;-26.142;27.992;2022-08-07T04:53:41;17.10;64.30
26479;DHT22;14163;-26.142;27.992;2022-08-07T04:56:17;17.10;64.00
26479;DHT22;14163;-26.142;27.992;2022-08-07T04:58:54;17.10;62.90
26479;DHT22;14163;-26.142;27.992;2022-08-07T05:01:34;17.10;62.30
26479;DHT22;14163;-26.142;27.992;2022-08-07T05:04:09;17.20;61.20
26479;DHT22;14163;-26.142;27.992;2022-08-07T05:06:52;17.30;62.30
26479;DHT22;14163;-26.142;27.992;2022-08-07T05:09:29;17.40;62.60
26479;DHT22;14163;-26.142;27.992;2022-08-07T05:12:02;17.40;63.30
26479;DHT22;14163;-26.142;27.992;2022-08-07T05:14:36;17.40;63.90
26479;DHT22;14163;-26.142;27.992;2022-08-07T05:17:09;17.40;64.20
26479;DHT22;14163;-26.142;27.992;2022-08-07T05:19:43;17.40;64.80
26479;DHT22;14163;-26.142;27.992;2022-08-07T05:22:16;17.40;65.70
26479;DHT22;14163;-26.142;27.992;2022-08-07T05:24:48;17.50;65.30
26479;DHT22;14163;-26.142;27.992;2022-08-07T05:27:21;17.50;65.50
26479;DHT22;14163;-26.142;27.992;2022-08-07T05:29:52;17.50;65.40
26479;DHT22;14163;-26.142;27.992;2022-08-07T05:32:22;17.50;65.50
26479;DHT22;14163;-26.142;27.992;2022-08-07T05:34:53;17.50;66.30
26479;DHT22;14163;-26.142;27.992;2022-08-07T05:37:24;17.50;66.10
26479;DHT22;14163;-26.142;27.992;2022-08-07T05:39:56;17.50;62.10
26479;DHT22;14163;-26.142;27.992;2022-08-07T05:42:26;17.50;61.40
26479;DHT22;14163;-26.142;27.992;2022-08-07T05:44:57;17.60;62.60
26479;DHT22;14163;-26.142;27.992;2022-08-07T05:47:26;17.70;63.00
26479;DHT22;14163;-26.142;27.992;2022-08-07T05:49:57;17.90;65.30
26479;DHT22;14163;-26.142;27.992;2022-08-07T05:52:26;18.00;63.60
26479;DHT22;14163;-26.142;27.992;2022-08-07T05:54:57;18.10;64.40
26479;DHT22;14163;-26.142;27.992;2022-08-07T05:57:27;18.20;63.60
26479;DHT22;14163;-26.142;27.992;2022-08-07T05:59:58;18.30;59.70
26479;DHT22;14163;-26.142;27.992;2022-08-07T06:02:30;18.40;59.90
26479;DHT22;14163;-26.142;27.992;2022-08-07T06:05:02;18.60;58.70
26479;DHT22;14163;-26.142;27.992;2022-08-07T06:07:33;18.70;59.40
26479;DHT22;14163;-26.142;27.992;2022-08-07T06:10:05;18.90;59.40
26479;DHT22;14163;-26.142;27.992;2022-08-07T06:12:37;19.00;58.30
26479;DHT22;14163;-26.142;27.992;2022-08-07T06:15:08;19.10;58.40
26479;DHT22;14163;-26.142;27.992;2022-08-07T06:17:40;19.30;58.50
26479;DHT22;14163;-26.142;27.992;2022-08-07T06:20:10;19.30;57.60
26479;DHT22;14163;-26.142;27.992;2022-08-07T06:22:40;19.40;58.00
26479;DHT22;14163;-26.142;27.992;2022-08-07T06:25:13;19.50;58.70
26479;DHT22;14163;-26.142;27.992;2022-08-07T06:27:42;19.60;58.80
26479;DHT22;14163;-26.142;27.992;2022-08-07T06:30:12;19.60;61.80
26479;DHT22;14163;-26.142;27.992;2022-08-07T06:32:42;19.70;70.20
26479;DHT22;14163;-26.142;27.992;2022-08-07T06:35:11;19.50;67.30
26479;DHT22;14163;-26.142;27.992;2022-08-07T06:37:41;19.50;74.90
26479;DHT22;14163;-26.142;27.992;2022-08-07T06:40:12;19.40;64.00
26479;DHT22;14163;-26.142;27.992;2022-08-07T06:42:42;19.30;70.10
26479;DHT22;14163;-26.142;27.992;2022-08-07T06:45:15;19.40;75.60
26479;DHT22;14163;-26.142;27.992;2022-08-07T06:47:45;19.30;68.90
26479;DHT22;14163;-26.142;27.992;2022-08-07T06:50:15;19.30;72.60
26479;DHT22;14163;-26.142;27.992;2022-08-07T06:52:47;19.20;64.90
26479;DHT22;14163;-26.142;27.992;2022-08-07T06:55:23;19.20;72.70
26479;DHT22;14163;-26.142;27.992;2022-08-07T06:57:56;19.20;75.10
26479;DHT22;14163;-26.142;27.992;2022-08-07T07:00:27;19.10;67.20
26479;DHT22;14163;-26.142;27.992;2022-08-07T07:02:59;19.20;66.10
26479;DHT22;14163;-26.142;27.992;2022-08-07T07:05:28;19.20;69.10
26479;DHT22;14163;-26.142;27.992;2022-08-07T07:07:57;19.20;65.50
26479;DHT22;14163;-26.142;27.992;2022-08-07T07:10:30;19.20;65.00
26479;DHT22;14163;-26.142;27.992;2022-08-07T07:13:05;19.20;62.80
26479;DHT22;14163;-26.142;27.992;2022-08-07T07:15:44;19.30;63.50
26479;DHT22;14163;-26.142;27.992;2022-08-07T07:18:17;19.30;62.40
26479;DHT22;14163;-26.142;27.992;2022-08-07T07:20:51;19.30;61.50
26479;DHT22;14163;-26.142;27.992;2022-08-07T07:23:22;19.40;65.10
26479;DHT22;14163;-26.142;27.992;2022-08-07T07:25:55;19.50;62.00
26479;DHT22;14163;-26.142;27.992;2022-08-07T07:28:31;19.50;62.30
26479;DHT22;14163;-26.142;27.992;2022-08-07T07:31:04;19.60;64.10
26479;DHT22;14163;-26.142;27.992;2022-08-07T07:33:35;19.60;62.30
26479;DHT22;14163;-26.142;27.992;2022-08-07T07:36:07;19.70;62.00
26479;DHT22;14163;-26.142;27.992;2022-08-07T07:38:38;19.60;61.50
26479;DHT22;14163;-26.142;27.992;2022-08-07T07:41:11;19.70;62.40
26479;DHT22;14163;-26.142;27.992;2022-08-07T07:43:43;19.60;61.90
26479;DHT22;14163;-26.142;27.992;2022-08-07T07:46:14;19.70;62.40
26479;DHT22;14163;-26.142;27.992;2022-08-07T07:48:46;19.80;63.40
26479;DHT22;14163;-26.142;27.992;2022-08-07T07:51:17;19.90;62.10
26479;DHT22;14163;-26.142;27.992;2022-08-07T07:53:47;20.10;62.80
26479;DHT22;14163;-26.142;27.992;2022-08-07T07:56:19;20.30;61.00
26479;DHT22;14163;-26.142;27.992;2022-08-07T07:58:51;20.20;60.30
26479;DHT22;14163;-26.142;27.992;2022-08-07T08:01:21;20.30;61.60
26479;DHT22;14163;-26.142;27.992;2022-08-07T08:03:53;20.20;61.00
26479;DHT22;14163;-26.142;27.992;2022-08-07T08:06:24;20.20;60.00
26479;DHT22;14163;-26.142;27.992;2022-08-07T08:08:55;20.20;60.70
26479;DHT22;14163;-26.142;27.992;2022-08-07T08:11:27;20.30;60.60
26479;DHT22;14163;-26.142;27.992;2022-08-07T08:13:57;20.40;59.70
26479;DHT22;14163;-26.142;27.992;2022-08-07T08:16:30;20.50;59.80
26479;DHT22;14163;-26.142;27.992;2022-08-07T08:19:02;20.40;59.90
26479;DHT22;14163;-26.142;27.992;2022-08-07T08:21:35;20.50;60.60
26479;DHT22;14163;-26.142;27.992;2022-08-07T08:24:23;20.50;61.70
26479;DHT22;14163;-26.142;27.992;2022-08-07T08:27:12;20.60;61.70
26479;DHT22;14163;-26.142;27.992;2022-08-07T08:29:49;20.60;61.70
26479;DHT22;14163;-26.142;27.992;2022-08-07T08:32:22;20.70;62.50
26479;DHT22;14163;-26.142;27.992;2022-08-07T08:34:53;20.90;62.70
26479;DHT22;14163;-26.142;27.992;2022-08-07T08:37:27;21.10;62.30
26479;DHT22;14163;-26.142;27.992;2022-08-07T08:39:57;21.20;62.60
26479;DHT22;14163;-26.142;27.992;2022-08-07T08:42:35;21.30;62.30
26479;DHT22;14163;-26.142;27.992;2022-08-07T08:45:11;21.40;62.20
26479;DHT22;14163;-26.142;27.992;2022-08-07T08:47:48;21.50;62.00
26479;DHT22;14163;-26.142;27.992;2022-08-07T08:50:22;21.60;61.90
26479;DHT22;14163;-26.142;27.992;2022-08-07T08:52:56;21.50;62.10
26479;DHT22;14163;-26.142;27.992;2022-08-07T08:55:36;21.50;62.60
26479;DHT22;14163;-26.142;27.992;2022-08-07T08:58:13;21.50;62.80
26479;DHT22;14163;-26.142;27.992;2022-08-07T09:00:47;21.60;62.20
26479;DHT22;14163;-26.142;27.992;2022-08-07T09:03:27;21.70;62.30
26479;DHT22;14163;-26.142;27.992;2022-08-07T09:06:03;21.80;62.30
26479;DHT22;14163;-26.142;27.992;2022-08-07T09:08:40;21.90;62.60
26479;DHT22;14163;-26.142;27.992;2022-08-07T09:11:17;21.90;62.30
26479;DHT22;14163;-26.142;27.992;2022-08-07T09:14:02;22.00;62.30
26479;DHT22;14163;-26.142;27.992;2022-08-07T09:16:55;22.20;62.50
26479;DHT22;14163;-26.142;27.992;2022-08-07T09:19:34;22.30;62.40
26479;DHT22;14163;-26.142;27.992;2022-08-07T09:22:26;22.60;62.20
26479;DHT22;14163;-26.142;27.992;2022-08-07T09:25:03;22.80;61.80
26479;DHT22;14163;-26.142;27.992;2022-08-07T09:27:43;22.80;61.70
26479;DHT22;14163;-26.142;27.992;2022-08-07T09:30:19;22.80;61.90
26479;DHT22;14163;-26.142;27.992;2022-08-07T09:33:10;22.80;61.80
26479;DHT22;14163;-26.142;27.992;2022-08-07T09:35:46;23.20;61.70
26479;DHT22;14163;-26.142;27.992;2022-08-07T09:38:27;23.40;60.80
26479;DHT22;14163;-26.142;27.992;2022-08-07T09:41:06;23.80;60.40
26479;DHT22;14163;-26.142;27.992;2022-08-07T09:43:54;24.60;59.90
26479;DHT22;14163;-26.142;27.992;2022-08-07T09:49:40;26.00;57.50
26479;DHT22;14163;-26.142;27.992;2022-08-07T09:52:19;26.30;57.00
26479;DHT22;14163;-26.142;27.992;2022-08-07T09:54:54;26.50;57.10
26479;DHT22;14163;-26.142;27.992;2022-08-07T10:00:36;27.50;56.00
26479;DHT22;14163;-26.142;27.992;2022-08-07T10:06:51;28.60;55.50
26479;DHT22;14163;-26.142;27.992;2022-08-07T10:09:49;29.30;54.40
26479;DHT22;14163;-26.142;27.992;2022-08-07T10:12:45;29.80;54.00
26479;DHT22;14163;-26.142;27.992;2022-08-07T10:15:56;29.60;53.20
26479;DHT22;14163;-26.142;27.992;2022-08-07T10:18:58;29.50;53.10
26479;DHT22;14163;-26.142;27.992;2022-08-07T10:21:40;29.10;53.40
26479;DHT22;14163;-26.142;27.992;2022-08-07T10:24:34;28.50;53.70
26479;DHT22;14163;-26.142;27.992;2022-08-07T10:27:25;28.70;53.80
26479;DHT22;14163;-26.142;27.992;2022-08-07T10:30:05;29.30;53.80
26479;DHT22;14163;-26.142;27.992;2022-08-07T10:32:58;29.80;53.20
26479;DHT22;14163;-26.142;27.992;2022-08-07T10:35:40;29.70;52.80
26479;DHT22;14163;-26.142;27.992;2022-08-07T10:38:34;29.60;52.50
26479;DHT22;14163;-26.142;27.992;2022-08-07T10:41:10;29.50;52.20
26479;DHT22;14163;-26.142;27.992;2022-08-07T10:43:53;29.40;52.60
26479;DHT22;14163;-26.142;27.992;2022-08-07T10:46:27;29.20;52.80
26479;DHT22;14163;-26.142;27.992;2022-08-07T10:49:06;29.00;52.30
26479;DHT22;14163;-26.142;27.992;2022-08-07T10:51:52;28.70;52.50
26479;DHT22;14163;-26.142;27.992;2022-08-07T10:54:34;28.50;52.90
26479;DHT22;14163;-26.142;27.992;2022-08-07T10:57:18;28.80;52.70
26479;DHT22;14163;-26.142;27.992;2022-08-07T11:00:04;29.00;52.60
26479;DHT22;14163;-26.142;27.992;2022-08-07T11:02:39;29.40;52.60
26479;DHT22;14163;-26.142;27.992;2022-08-07T11:05:20;29.60;52.40
26479;DHT22;14163;-26.142;27.992;2022-08-07T11:08:03;29.90;51.60
26479;DHT22;14163;-26.142;27.992;2022-08-07T11:10:41;29.40;51.30
26479;DHT22;14163;-26.142;27.992;2022-08-07T11:13:17;28.80;52.40
26479;DHT22;14163;-26.142;27.992;2022-08-07T11:15:49;28.30;52.50
26479;DHT22;14163;-26.142;27.992;2022-08-07T11:18:24;27.90;53.00
26479;DHT22;14163;-26.142;27.992;2022-08-07T11:21:00;27.80;53.70
26479;DHT22;14163;-26.142;27.992;2022-08-07T11:23:38;27.50;53.30
26479;DHT22;14163;-26.142;27.992;2022-08-07T11:26:20;27.70;53.80
26479;DHT22;14163;-26.142;27.992;2022-08-07T11:28:57;27.80;53.60
26479;DHT22;14163;-26.142;27.992;2022-08-07T11:31:36;27.50;53.50
26479;DHT22;14163;-26.142;27.992;2022-08-07T11:34:17;27.20;54.20
26479;DHT22;14163;-26.142;27.992;2022-08-07T11:36:58;27.30;54.40
26479;DHT22;14163;-26.142;27.992;2022-08-07T11:39:50;27.30;54.00
26479;DHT22;14163;-26.142;27.992;2022-08-07T11:42:29;27.30;54.10
26479;DHT22;14163;-26.142;27.992;2022-08-07T11:45:09;27.30;54.40
26479;DHT22;14163;-26.142;27.992;2022-08-07T11:48:05;27.20;53.90
26479;DHT22;14163;-26.142;27.992;2022-08-07T11:50:46;26.90;54.20
26479;DHT22;14163;-26.142;27.992;2022-08-07T11:53:32;26.90;54.60
26479;DHT22;14163;-26.142;27.992;2022-08-07T11:56:19;27.00;54.40
26479;DHT22;14163;-26.142;27.992;2022-08-07T11:59:04;27.10;54.30
26479;DHT22;14163;-26.142;27.992;2022-08-07T12:01:45;26.90;54.10
26479;DHT22;14163;-26.142;27.992;2022-08-07T12:04:38;26.60;54.40
26479;DHT22;14163;-26.142;27.992;2022-08-07T12:07:16;26.50;54.50
26479;DHT22;14163;-26.142;27.992;2022-08-07T12:09:52;26.50;54.60
26479;DHT22;14163;-26.142;27.992;2022-08-07T12:12:31;26.40;54.60
26479;DHT22;14163;-26.142;27.992;2022-08-07T12:15:07;26.50;54.70
26479;DHT22;14163;-26.142;27.992;2022-08-07T12:17:46;26.60;54.70
26479;DHT22;14163;-26.142;27.992;2022-08-07T12:20:22;26.50;54.80
26479;DHT22;14163;-26.142;27.992;2022-08-07T12:26:18;26.30;54.30
26479;DHT22;14163;-26.142;27.992;2022-08-07T12:28:55;26.40;55.30
26479;DHT22;14163;-26.142;27.992;2022-08-07T12:31:34;26.40;54.60
26479;DHT22;14163;-26.142;27.992;2022-08-07T12:34:05;26.60;54.90
26479;DHT22;14163;-26.142;27.992;2022-08-07T12:36:36;27.00;54.40
26479;DHT22;14163;-26.142;27.992;2022-08-07T12:39:05;27.00;53.80
26479;DHT22;14163;-26.142;27.992;2022-08-07T12:41:36;27.10;54.00
26479;DHT22;14163;-26.142;27.992;2022-08-07T12:44:10;26.80;53.80
26479;DHT22;14163;-26.142;27.992;2022-08-07T12:47:04;26.60;54.10
26479;DHT22;14163;-26.142;27.992;2022-08-07T12:49:45;26.50;54.70
26479;DHT22;14163;-26.142;27.992;2022-08-07T12:52:20;26.40;54.50
26479;DHT22;14163;-26.142;27.992;2022-08-07T12:54:59;26.30;54.60
26479;DHT22;14163;-26.142;27.992;2022-08-07T12:57:31;26.30;54.70
26479;DHT22;14163;-26.142;27.992;2022-08-07T13:00:05;26.40;54.00
26479;DHT22;14163;-26.142;27.992;2022-08-07T13:02:55;26.40;54.10
26479;DHT22;14163;-26.142;27.992;2022-08-07T13:05:43;26.40;53.80
26479;DHT22;14163;-26.142;27.992;2022-08-07T13:08:34;26.20;53.70
26479;DHT22;14163;-26.142;27.992;2022-08-07T13:11:19;26.20;53.70
26479;DHT22;14163;-26.142;27.992;2022-08-07T13:14:01;26.20;54.30
26479;DHT22;14163;-26.142;27.992;2022-08-07T13:16:39;26.10;54.60
26479;DHT22;14163;-26.142;27.992;2022-08-07T13:19:17;26.20;54.50
26479;DHT22;14163;-26.142;27.992;2022-08-07T13:21:55;26.30;54.50
26479;DHT22;14163;-26.142;27.992;2022-08-07T13:24:33;26.30;54.30
26479;DHT22;14163;-26.142;27.992;2022-08-07T13:27:09;26.40;54.10
26479;DHT22;14163;-26.142;27.992;2022-08-07T13:29:46;26.60;54.50
26479;DHT22;14163;-26.142;27.992;2022-08-07T13:32:25;26.70;54.20
26479;DHT22;14163;-26.142;27.992;2022-08-07T13:35:00;26.70;53.80
26479;DHT22;14163;-26.142;27.992;2022-08-07T13:37:35;26.80;53.80
26479;DHT22;14163;-26.142;27.992;2022-08-07T13:40:14;26.70;53.20
26479;DHT22;14163;-26.142;27.992;2022-08-07T13:42:49;26.60;53.10
26479;DHT22;14163;-26.142;27.992;2022-08-07T13:45:20;26.70;55.00
26479;DHT22;14163;-26.142;27.992;2022-08-07T13:47:55;26.70;53.30
26479;DHT22;14163;-26.142;27.992;2022-08-07T13:50:29;26.70;53.00
26479;DHT22;14163;-26.142;27.992;2022-08-07T13:53:02;26.60;52.90
26479;DHT22;14163;-26.142;27.992;2022-08-07T13:55:32;26.60;53.20
26479;DHT22;14163;-26.142;27.992;2022-08-07T13:58:06;26.60;53.40
26479;DHT22;14163;-26.142;27.992;2022-08-07T14:00:53;26.50;53.60
26479;DHT22;14163;-26.142;27.992;2022-08-07T14:03:26;26.20;54.00
26479;DHT22;14163;-26.142;27.992;2022-08-07T14:06:03;26.10;54.80
26479;DHT22;14163;-26.142;27.992;2022-08-07T14:08:32;26.10;54.00
26479;DHT22;14163;-26.142;27.992;2022-08-07T14:11:05;25.90;54.20
26479;DHT22;14163;-26.142;27.992;2022-08-07T14:13:35;25.80;53.90
26479;DHT22;14163;-26.142;27.992;2022-08-07T14:16:08;25.70;54.10
26479;DHT22;14163;-26.142;27.992;2022-08-07T14:18:44;25.80;54.20
26479;DHT22;14163;-26.142;27.992;2022-08-07T14:21:18;25.90;54.30
26479;DHT22;14163;-26.142;27.992;2022-08-07T14:23:53;26.00;54.40
26479;DHT22;14163;-26.142;27.992;2022-08-07T14:26:28;26.20;54.70
26479;DHT22;14163;-26.142;27.992;2022-08-07T14:28:59;26.30;54.00
26479;DHT22;14163;-26.142;27.992;2022-08-07T14:31:31;26.00;54.00
26479;DHT22;14163;-26.142;27.992;2022-08-07T14:34:02;25.80;54.10
26479;DHT22;14163;-26.142;27.992;2022-08-07T14:36:34;25.80;54.50
26479;DHT22;14163;-26.142;27.992;2022-08-07T14:39:04;25.80;54.90
26479;DHT22;14163;-26.142;27.992;2022-08-07T14:41:33;25.70;55.20
26479;DHT22;14163;-26.142;27.992;2022-08-07T14:44:09;25.70;55.20
26479;DHT22;14163;-26.142;27.992;2022-08-07T14:46:41;25.60;55.50
26479;DHT22;14163;-26.142;27.992;2022-08-07T14:49:14;25.70;55.70
26479;DHT22;14163;-26.142;27.992;2022-08-07T14:51:45;25.80;55.80
26479;DHT22;14163;-26.142;27.992;2022-08-07T14:54:16;26.00;55.70
26479;DHT22;14163;-26.142;27.992;2022-08-07T14:56:47;26.00;55.80
26479;DHT22;14163;-26.142;27.992;2022-08-07T14:59:21;25.90;55.90
26479;DHT22;14163;-26.142;27.992;2022-08-07T15:01:53;25.90;56.20
26479;DHT22;14163;-26.142;27.992;2022-08-07T15:04:26;26.00;56.50
26479;DHT22;14163;-26.142;27.992;2022-08-07T15:06:56;26.10;56.10
26479;DHT22;14163;-26.142;27.992;2022-08-07T15:09:27;26.20;56.30
26479;DHT22;14163;-26.142;27.992;2022-08-07T15:12:05;26.10;55.90
26479;DHT22;14163;-26.142;27.992;2022-08-07T15:14:36;25.90;56.10
26479;DHT22;14163;-26.142;27.992;2022-08-07T15:17:12;25.80;56.30
26479;DHT22;14163;-26.142;27.992;2022-08-07T15:19:52;25.80;56.50
26479;DHT22;14163;-26.142;27.992;2022-08-07T15:22:30;25.70;56.60
26479;DHT22;14163;-26.142;27.992;2022-08-07T15:25:04;25.60;56.80
26479;DHT22;14163;-26.142;27.992;2022-08-07T15:27:40;25.70;57.10
26479;DHT22;14163;-26.142;27.992;2022-08-07T15:30:12;25.80;57.00
26479;DHT22;14163;-26.142;27.992;2022-08-07T15:32:43;25.80;56.90
26479;DHT22;14163;-26.142;27.992;2022-08-07T15:35:16;25.80;57.10
26479;DHT22;14163;-26.142;27.992;2022-08-07T15:37:50;25.80;57.20
26479;DHT22;14163;-26.142;27.992;2022-08-07T15:40:21;25.70;57.20
26479;DHT22;14163;-26.142;27.992;2022-08-07T15:42:53;25.70;57.30
26479;DHT22;14163;-26.142;27.992;2022-08-07T15:45:36;25.80;57.60
26479;DHT22;14163;-26.142;27.992;2022-08-07T15:48:15;26.00;57.60
26479;DHT22;14163;-26.142;27.992;2022-08-07T15:50:49;26.00;57.50
26479;DHT22;14163;-26.142;27.992;2022-08-07T15:53:28;26.20;57.80
26479;DHT22;14163;-26.142;27.992;2022-08-07T15:56:03;26.30;58.30
26479;DHT22;14163;-26.142;27.992;2022-08-07T15:58:39;26.40;58.30
26479;DHT22;14163;-26.142;27.992;2022-08-07T16:01:15;26.50;58.60